Monster Beverage ROA 2006-2018 | MNST

Current and historical return on assets (ROA) values for Monster Beverage (MNST) over the last 10 years. Return on assets can be defined as an indicator of how profitable a company is relative to its total assets. Calculated by dividing a company's operating earnings by its total assets. Monster Beverage ROA for the three months ending September 30, 2018 was 20.53%.
Monster Beverage ROA - Return on Assets Historical Data
Date TTM Net Income Total Assets Return on Assets
2018-09-30 $0.96B $4.87B 20.16%
2018-06-30 $0.91B $4.54B 19.30%
2018-03-31 $0.86B $4.74B 18.16%
2017-12-31 $0.82B $4.79B 17.72%
2017-09-30 $0.79B $4.71B 17.72%
2017-06-30 $0.77B $4.68B 17.59%
2017-03-31 $0.73B $4.35B 17.33%
2016-12-31 $0.71B $4.15B 15.58%
2016-09-30 $0.68B $4.24B 13.77%
2016-06-30 $0.66B $4.04B 12.55%
2016-03-31 $0.71B $5.88B 12.38%
2015-12-31 $0.55B $5.57B 11.48%
2015-09-30 $0.53B $5.60B 13.83%
2015-06-30 $0.48B $5.79B 16.44%
2015-03-31 $0.39B $2.09B 20.48%
2014-12-31 $0.48B $1.94B 26.96%
2014-09-30 $0.43B $1.86B 26.12%
2014-06-30 $0.40B $1.77B 25.67%
2014-03-31 $0.37B $1.59B 25.32%
2013-12-31 $0.34B $1.42B 25.05%
2013-09-30 $0.33B $1.51B 26.29%
2013-06-30 $0.32B $1.32B 26.85%
2013-03-31 $0.33B $1.15B 25.59%
2012-12-31 $0.34B $1.04B 25.02%
2012-09-30 $0.34B $1.32B 23.43%
2012-06-30 $0.33B $1.60B 23.56%
2012-03-31 $0.31B $1.47B 23.24%
2011-12-31 $0.29B $1.36B 23.13%
2011-09-30 $0.27B $1.22B 22.83%
2011-06-30 $0.25B $1.23B 22.38%
2011-03-31 $0.23B $1.13B 21.92%
2010-12-31 $0.21B $1.15B 20.99%
2010-09-30 $0.22B $1.03B 23.40%
2010-06-30 $0.21B $0.97B 23.88%
2010-03-31 $0.20B $0.90B 24.33%
2009-12-31 $0.21B $0.80B 26.79%
2009-09-30 $0.13B $0.80B 17.26%
2009-06-30 $0.13B $0.79B 17.53%
2009-03-31 $0.12B $0.73B 17.70%
2008-12-31 $0.11B $0.76B 16.71%
2008-09-30 $0.18B $0.64B 29.72%
2008-06-30 $0.17B $0.60B 30.40%
2008-03-31 $0.16B $0.58B 30.22%
2007-12-31 $0.15B $0.55B 31.79%
2007-09-30 $0.13B $0.51B 30.77%
2007-06-30 $0.11B $0.45B 29.42%
2007-03-31 $0.10B $0.37B 30.65%
2006-12-31 $0.10B $0.31B 35.63%
2006-09-30 $0.09B $0.31B 39.37%
2006-06-30 $0.09B $0.27B 44.67%
2006-03-31 $0.07B $0.20B 46.69%
2005-12-31 $0.06B $0.16B 46.79%
Sector Industry Market Cap Revenue
Consumer Staples Beverages - Soft Drinks $30.839B $3.369B
Based in Corona, California, Monster Beverage Corporation is a holding company and conducts no operating business except through its consolidated subsidiaries. The Company's subsidiaries market and distribute energy drinks, including Monster Energy(R) energy drinks, Monster Energy Extra Strength Nitrous Technology(R) energy drinks, Java Monster(R) non-carbonated coffee + energy drinks, M3(R) Monster Energy(R) Super Concentrate energy drinks, Monster Rehab(R) non-carbonated energy drinks with electrolytes, Muscle Monster(R) Energy Shakes, Ubermonster(R) energy drinks, NOS(R) energy drinks, Full Throttle(R) energy drinks, Burn(R) energy drinks, Samurai(R) energy drinks, Relentless(R) energy drinks, Mother(R) energy drinks, Power Play(R) energy drinks, BU(R) energy drinks, Nalu(R) energy drinks, BPM(R) energy drinks, Gladiator(R) energy drinks, and Ultra(R) energy drinks.
Stock Name Country Market Cap PE Ratio
Coca-Cola (KO) United States $214.020B 24.47
Pepsico (PEP) United States $167.059B 21.64
Keurig Dr Pepper (KDP) United States $38.492B 10.19
Fomento Economico MexicanoB De C.V (FMX) Mexico $30.894B 38.72
Coca-Cola European Partners (CCEP) United Kingdom $23.817B 18.42
Coca Cola FemsaB De C.V (KOF) Mexico $12.846B 20.38
National Beverage (FIZZ) United States $4.228B 26.51
Embotelladora Andina (AKO.B) Chile $3.392B 17.34
Embotelladora Andina (AKO.A) Chile $3.045B 15.56
Cott (COT) Canada $2.047B 99.07
Coca-Cola Bottling Consolidated (COKE) United States $1.810B 56.55
Primo Water (PRMW) United States $0.576B 59.76
New Age Beverage (NBEV) United States $0.182B 0.00
Youngevity (YGYI) United States $0.154B 0.00
Reeds (REED) United States $0.064B 0.00
DAVIDsTEA (DTEA) Canada $0.054B 0.00
SkyPeople Fruit Juice (FTFT) China $0.030B 0.00
Coffee Holding (JVA) United States $0.023B 24.12